SAWJ/ULA METAR and TAF weather

Enter ICAO airport designator
Station Type Date Time Source
SAWJ METAR 2023/02/05 05:08 UTC NOAA

SAWJ 050508Z 30024G36KT CAVOK 23/06 Q0995


Station Type Date Time Source
SAWJ Decoded METAR 2023/02/05 05:08 UTC NOAA

San Julian Aerodrome, Argentina (SAWJ) 49-19S 067-45W 62M
Feb 05, 2023 - 12:08 AM EST / 2023.02.05 0508 UTC
Wind: from the WNW (300 degrees) at 28 MPH (24 KT) gusting to 41 MPH (36 KT):0
Visibility: greater than 7 mile(s):0
Temperature: 73 F (23 C)
Dew Point: 42 F (6 C)
Relative Humidity: 33%
Pressure (altimeter): 29.38 in. Hg (0995 hPa)
ob: SAWJ 050508Z 30024G36KT CAVOK 23/06 Q0995
cycle: 5

Station Type Date Time Source
SAWJ TAF 2014/06/25 12:00 UTC NOAA

TAF SAWJ 251100Z 2512/2612 32025G35KT 9999 -RA BKN030 BKN045 TX06/2518Z TN02/2611Z
BECMG 2518/2520 29020G30KT NSW SCT030
BECMG 2609/2611 23020G30KT SHSN OVC015

Example: see airport list